Wandering Star — WDE7465 — position and weather

sailwx.info

Track history (hours):
 
Tides and Currents Weather Stations Pressure Air Temp Water Temp Dewpoint Dewpoint Depression Visibility Wind Speed Wind Dir Waves Ship Positions

Wandering Star

Owner: Sherrill Jr, Thomas R, League City, TX. More information available from US FCC via Universal Licensing System and Coast Guard Vessel Documentation Center.

Last reported at 2018-Apr-11 23:22 UTC. Time now 2018-May-24 00:01 UTC.
Position N 29°33' W 095°02'.
Warning: this ship's position is 42 days out of date.

Length 12 m.

Type: Sailing vessel. MMSI: 367393630.

Date/timePositionNaut miles runAvg speedWind from/ knotsBaromVisibWave heightAir tempDewpointWater temp
2018-Apr-11 23:22N 29°33' W 095°02'0 0.8
2018-Apr-11 22:56N 29°33' W 095°01'1 3.3
2018-Apr-11 22:30N 29°33' W 094°60'1 3.1
2018-Apr-11 22:00N 29°34' W 094°58'1 2.0
2018-Apr-11 21:27N 29°35' W 094°58'3 5.8
2018-Apr-11 21:01N 29°33' W 094°60'1 1.9
2018-Apr-11 20:30N 29°34' W 094°59'0 0.9
2018-Apr-11 20:00N 29°34' W 094°60'2 3.3
2018-Apr-11 19:30N 29°33' W 095°01'0 0.0
2018-Apr-11 19:00N 29°33' W 095°01'0 0.0
2018-Apr-11 18:30N 29°33' W 095°01'0 0.1
2018-Apr-11 18:00N 29°33' W 095°01'  
2018-Apr-02 23:01N 29°33' W 095°02'1 1.9
2018-Apr-02 22:30N 29°33' W 095°00'2 4.5
2018-Apr-02 22:00N 29°34' W 094°58'2 3.2
2018-Apr-02 21:30N 29°33' W 094°60'  
Track history (hours):
 
Tides and Currents Weather Stations Pressure Air Temp Water Temp Dewpoint Dewpoint Depression Visibility Wind Speed Wind Dir Waves Ship Positions

Wandering Star

Owner: Sherrill Jr, Thomas R, League City, TX. More information available from US FCC via Universal Licensing System and Coast Guard Vessel Documentation Center.

Last reported at 2018-Apr-11 23:22 UTC. Time now 2018-May-24 00:01 UTC.
Position N 29°33' W 095°02'.
Warning: this ship's position is 42 days out of date.

Length 12 m.

Type: Sailing vessel. MMSI: 367393630.

Date/timePositionNaut miles runAvg speedWind from/ knotsBaromVisibWave heightAir tempDewpointWater temp
2018-Apr-11 23:22N 29°33' W 095°02'0 0.8
2018-Apr-11 22:56N 29°33' W 095°01'1 3.3
2018-Apr-11 22:30N 29°33' W 094°60'1 3.1
2018-Apr-11 22:00N 29°34' W 094°58'1 2.0
2018-Apr-11 21:27N 29°35' W 094°58'3 5.8
2018-Apr-11 21:01N 29°33' W 094°60'1 1.9
2018-Apr-11 20:30N 29°34' W 094°59'0 0.9
2018-Apr-11 20:00N 29°34' W 094°60'2 3.3
2018-Apr-11 19:30N 29°33' W 095°01'0 0.0
2018-Apr-11 19:00N 29°33' W 095°01'0 0.0
2018-Apr-11 18:30N 29°33' W 095°01'0 0.1
2018-Apr-11 18:00N 29°33' W 095°01'  
2018-Apr-02 23:01N 29°33' W 095°02'1 1.9
2018-Apr-02 22:30N 29°33' W 095°00'2 4.5
2018-Apr-02 22:00N 29°34' W 094°58'2 3.2
2018-Apr-02 21:30N 29°33' W 094°60'  

Dump ship's entire track history